Time;durP1;ratioP1;P1;durP2;ratioP2;P2;SDS_P1;SDS_P2;PMS_P1;PMS_P2;Temp;Humidity;BMP_temperature;BMP_pressure;BME280_temperature;BME280_humidity;BME280_pressure;Samples;Min_cycle;Max_cycle;Signal;HPM_P1;HPM_P2
2022/03/29 00:01:58;;;;;;;3.30;3.10;;;18.60;41.90;;;;;;5004184;28;20222;-58
2022/03/29 00:04:23;;;;;;;3.17;2.97;;;18.60;41.90;;;;;;5006999;28;20420;-58
2022/03/29 00:06:50;;;;;;;3.80;3.60;;;18.60;41.90;;;;;;5010210;28;20950;-59
2022/03/29 00:09:16;;;;;;;2.90;2.70;;;18.60;41.90;;;;;;5006132;28;20253;-58
2022/03/29 00:11:42;;;;;;;3.00;2.80;;;18.60;41.90;;;;;;5009705;28;20424;-60
2022/03/29 00:14:08;;;;;;;2.77;2.57;;;18.60;42.00;;;;;;4991644;28;20447;-58
2022/03/29 00:16:35;;;;;;;3.40;3.20;;;18.60;41.90;;;;;;4985049;28;20677;-58
2022/03/29 00:19:00;;;;;;;2.97;2.77;;;18.60;41.90;;;;;;5009664;28;20768;-59
2022/03/29 00:21:26;;;;;;;3.80;3.60;;;18.60;41.90;;;;;;5009371;28;20447;-58
2022/03/29 00:23:52;;;;;;;3.00;2.77;;;18.60;41.90;;;;;;5010259;28;20224;-58
2022/03/29 00:26:18;;;;;;;3.30;3.10;;;18.60;41.90;;;;;;4990424;28;20295;-59
2022/03/29 00:28:44;;;;;;;3.60;3.40;;;18.60;41.90;;;;;;5008484;28;20215;-59
2022/03/29 00:31:11;;;;;;;2.87;2.67;;;18.60;41.90;;;;;;5006892;28;20727;-58
2022/03/29 00:33:37;;;;;;;3.37;3.17;;;18.60;41.90;;;;;;5006660;28;20232;-59
2022/03/29 00:36:03;;;;;;;3.33;3.13;;;18.60;41.90;;;;;;5008263;28;20448;-58
2022/03/29 00:38:28;;;;;;;3.23;2.80;;;18.60;41.90;;;;;;5008895;28;20676;-58
2022/03/29 00:40:55;;;;;;;7.63;3.57;;;18.60;41.90;;;;;;5008883;28;20224;-59
2022/03/29 00:43:21;;;;;;;3.23;2.97;;;18.60;41.90;;;;;;5008058;28;20224;-58
2022/03/29 00:45:46;;;;;;;3.53;3.23;;;18.60;41.90;;;;;;5006278;28;20420;-60
2022/03/29 00:48:13;;;;;;;3.30;3.10;;;18.60;41.90;;;;;;5005223;28;20437;-62
2022/03/29 00:50:40;;;;;;;3.30;3.10;;;18.60;41.90;;;;;;5008424;28;20273;-59
2022/03/29 00:53:08;;;;;;;2.97;2.77;;;18.60;41.90;;;;;;5007830;28;20578;-58
2022/03/29 00:55:34;;;;;;;3.30;3.10;;;18.60;41.90;;;;;;5009080;28;20460;-59
2022/03/29 00:58:03;;;;;;;2.77;2.57;;;18.60;41.90;;;;;;5009208;28;20856;-58
2022/03/29 01:00:32;;;;;;;3.60;3.40;;;18.60;41.90;;;;;;5004547;28;20243;-58
2022/03/29 01:02:59;;;;;;;3.63;3.43;;;18.60;41.90;;;;;;5005742;28;20502;-58
2022/03/29 01:05:26;;;;;;;3.20;2.90;;;18.60;41.90;;;;;;5009156;28;20433;-58
2022/03/29 01:07:57;;;;;;;2.97;2.77;;;18.60;41.80;;;;;;5008254;28;20416;-59
2022/03/29 01:10:23;;;;;;;3.13;2.93;;;18.60;41.90;;;;;;5007130;28;20447;-59
2022/03/29 01:12:50;;;;;;;4.13;2.90;;;18.60;41.90;;;;;;5006478;28;20445;-59
2022/03/29 01:15:16;;;;;;;2.90;2.70;;;18.60;41.90;;;;;;5009762;28;20430;-58
2022/03/29 01:17:43;;;;;;;3.53;3.33;;;18.60;41.80;;;;;;4990591;28;20880;-58
2022/03/29 01:20:20;;;;;;;3.40;3.20;;;18.60;41.90;;;;;;5007042;28;20439;-58
2022/03/29 01:22:48;;;;;;;3.10;2.90;;;18.60;41.90;;;;;;5006853;28;20933;-58
2022/03/29 01:25:40;;;;;;;2.80;2.60;;;18.60;41.90;;;;;;5008200;28;20424;-58
2022/03/29 01:28:06;;;;;;;3.50;3.20;;;18.60;41.80;;;;;;5002418;28;20883;-59
2022/03/29 01:30:33;;;;;;;2.87;2.67;;;18.60;41.90;;;;;;5006262;28;20416;-58
2022/03/29 01:33:00;;;;;;;3.43;3.23;;;18.60;41.90;;;;;;5007364;28;20512;-60
2022/03/29 01:35:27;;;;;;;3.03;2.80;;;18.60;41.90;;;;;;5006653;28;20503;-58
2022/03/29 01:37:54;;;;;;;3.10;2.80;;;18.60;41.90;;;;;;4991023;28;20891;-58
2022/03/29 01:40:23;;;;;;;3.67;3.47;;;18.60;41.90;;;;;;5005224;28;20452;-59
2022/03/29 01:43:00;;;;;;;3.30;3.10;;;18.60;41.90;;;;;;5007829;28;20436;-58
2022/03/29 01:45:28;;;;;;;2.90;2.70;;;18.60;41.90;;;;;;5007817;28;20959;-60
2022/03/29 01:47:54;;;;;;;2.97;2.77;;;18.60;41.90;;;;;;5007016;28;20433;-60
2022/03/29 01:50:20;;;;;;;2.93;2.73;;;18.60;41.90;;;;;;5007766;28;20418;-59
2022/03/29 01:52:47;;;;;;;3.37;3.17;;;18.60;41.90;;;;;;5007240;28;20602;-58
2022/03/29 01:55:16;;;;;;;3.00;2.80;;;18.60;41.90;;;;;;5006497;28;20539;-60
2022/03/29 01:57:42;;;;;;;4.43;3.30;;;18.60;41.90;;;;;;5006988;28;20434;-58
2022/03/29 02:02:54;;;;;;;2.90;2.77;;;18.60;41.90;;;;;;5003846;28;20788;-60
2022/03/29 02:05:20;;;;;;;3.37;3.07;;;18.60;41.90;;;;;;5008735;28;20427;-58
2022/03/29 02:07:46;;;;;;;3.10;2.90;;;18.60;41.90;;;;;;5007839;28;20477;-59
2022/03/29 02:10:16;;;;;;;2.97;2.77;;;18.60;41.90;;;;;;5008525;28;20461;-58
2022/03/29 02:12:42;;;;;;;3.03;2.83;;;18.60;41.90;;;;;;5007276;28;20220;-58
2022/03/29 02:15:08;;;;;;;3.20;3.00;;;18.60;41.90;;;;;;5006169;28;20446;-58
2022/03/29 02:17:33;;;;;;;2.63;2.43;;;18.60;41.90;;;;;;5007912;28;20258;-58
2022/03/29 02:19:59;;;;;;;3.40;3.10;;;18.60;41.90;;;;;;5007131;28;20428;-58
2022/03/29 02:22:25;;;;;;;2.83;2.63;;;18.60;42.00;;;;;;4984272;28;20331;-59
2022/03/29 02:24:50;;;;;;;3.50;2.97;;;18.60;41.90;;;;;;5006067;28;20228;-59
2022/03/29 02:27:16;;;;;;;3.10;2.90;;;18.60;41.90;;;;;;5008353;28;20704;-58
2022/03/29 02:29:41;;;;;;;3.13;2.93;;;18.60;42.20;;;;;;4990335;28;20623;-58
2022/03/29 02:32:08;;;;;;;3.20;3.00;;;18.60;42.70;;;;;;5004732;28;20228;-58
2022/03/29 02:34:34;;;;;;;3.10;2.90;;;18.60;41.90;;;;;;5007275;28;20680;-58
2022/03/29 02:36:59;;;;;;;3.93;3.63;;;18.60;41.90;;;;;;5008373;28;20477;-58
2022/03/29 02:39:25;;;;;;;3.83;3.43;;;18.50;41.80;;;;;;4994733;28;20231;-60
2022/03/29 02:41:51;;;;;;;2.63;2.43;;;18.50;41.80;;;;;;5011850;28;20251;-60
2022/03/29 02:44:16;;;;;;;3.20;3.00;;;18.50;41.80;;;;;;5008865;28;20583;-59
2022/03/29 02:46:44;;;;;;;3.50;3.00;;;18.60;41.90;;;;;;5010738;28;20247;-58
2022/03/29 02:49:10;;;;;;;3.40;3.20;;;18.50;41.80;;;;;;5010155;28;20294;-59
2022/03/29 02:51:35;;;;;;;3.60;3.30;;;18.50;41.80;;;;;;5008202;28;20924;-59
2022/03/29 02:54:01;;;;;;;3.47;3.27;;;18.50;41.80;;;;;;5009784;28;20655;-59
2022/03/29 02:56:28;;;;;;;3.07;2.87;;;18.50;41.80;;;;;;5010580;28;20584;-59
2022/03/29 02:58:53;;;;;;;3.00;2.80;;;18.50;42.20;;;;;;5009995;28;20539;-59
2022/03/29 03:01:19;;;;;;;3.17;2.93;;;18.50;41.80;;;;;;5012731;28;20935;-58
2022/03/29 03:03:45;;;;;;;3.50;3.30;;;18.50;41.80;;;;;;5011769;28;20586;-59
2022/03/29 03:06:11;;;;;;;3.07;2.87;;;18.50;41.80;;;;;;5010647;28;20228;-60
2022/03/29 03:08:36;;;;;;;3.40;3.10;;;18.50;41.80;;;;;;5009462;28;20208;-58
2022/03/29 03:11:03;;;;;;;3.23;3.03;;;18.50;41.80;;;;;;5010933;28;20480;-59
2022/03/29 03:13:29;;;;;;;3.30;3.10;;;18.50;41.80;;;;;;5011264;28;20656;-58
2022/03/29 03:15:55;;;;;;;2.77;2.57;;;18.50;41.80;;;;;;5007559;28;20916;-59
2022/03/29 03:18:20;;;;;;;3.30;3.10;;;18.50;41.70;;;;;;5010853;28;20231;-59
2022/03/29 03:20:46;;;;;;;3.10;2.90;;;18.50;41.80;;;;;;5012308;28;20524;-59
2022/03/29 03:23:12;;;;;;;3.70;3.00;;;18.50;41.80;;;;;;5005909;28;20220;-60
2022/03/29 03:25:38;;;;;;;3.07;2.83;;;18.50;41.80;;;;;;4991645;28;20260;-60
2022/03/29 03:28:04;;;;;;;3.03;2.83;;;18.50;41.80;;;;;;5011201;28;20243;-58
2022/03/29 03:30:30;;;;;;;3.40;3.10;;;18.50;41.80;;;;;;5008756;28;20941;-59
2022/03/29 03:32:56;;;;;;;3.20;3.00;;;18.50;41.80;;;;;;5008570;28;20449;-59
2022/03/29 03:35:22;;;;;;;3.10;2.90;;;18.50;41.80;;;;;;4991983;28;20274;-59
2022/03/29 03:37:48;;;;;;;3.67;3.47;;;18.50;41.80;;;;;;5011893;28;20216;-60
2022/03/29 03:40:14;;;;;;;3.00;2.80;;;18.50;41.80;;;;;;5009058;28;20235;-58
2022/03/29 03:42:40;;;;;;;3.20;3.00;;;18.50;42.60;;;;;;5009015;28;20424;-60
2022/03/29 03:45:07;;;;;;;2.93;2.83;;;18.50;41.80;;;;;;5010483;28;20223;-59
2022/03/29 03:47:34;;;;;;;3.80;3.60;;;18.50;41.80;;;;;;5009662;28;20268;-59
2022/03/29 03:50:00;;;;;;;3.20;3.00;;;18.50;41.70;;;;;;5009436;28;20539;-60
2022/03/29 03:52:26;;;;;;;3.10;2.90;;;18.50;41.80;;;;;;5008450;28;20917;-59
2022/03/29 03:54:54;;;;;;;3.43;3.13;;;18.50;41.70;;;;;;5009203;28;20457;-58
2022/03/29 03:57:19;;;;;;;3.10;2.90;;;18.50;41.80;;;;;;5009695;28;20416;-61
2022/03/29 03:59:48;;;;;;;4.00;3.80;;;18.50;42.60;;;;;;5011105;28;20452;-59
2022/03/29 04:02:14;;;;;;;3.00;2.80;;;18.50;41.80;;;;;;5006283;28;20285;-59
2022/03/29 04:04:40;;;;;;;3.30;3.10;;;18.50;41.80;;;;;;5010777;28;20456;-59
2022/03/29 04:07:06;;;;;;;3.00;2.80;;;18.50;41.80;;;;;;5009049;28;20458;-61
2022/03/29 04:09:35;;;;;;;3.40;3.10;;;18.50;41.80;;;;;;5007748;28;20262;-58
2022/03/29 04:12:04;;;;;;;3.00;2.80;;;18.50;41.80;;;;;;5009668;28;20427;-60
2022/03/29 04:14:30;;;;;;;3.50;3.20;;;18.50;41.70;;;;;;5010699;28;20451;-59
2022/03/29 04:16:55;;;;;;;3.20;3.00;;;18.50;41.80;;;;;;5010222;28;20435;-60
2022/03/29 04:19:21;;;;;;;3.40;3.20;;;18.50;41.80;;;;;;5009024;28;20302;-59
2022/03/29 04:21:47;;;;;;;3.33;3.03;;;18.50;41.80;;;;;;5010320;28;20313;-60
2022/03/29 04:24:13;;;;;;;3.10;2.90;;;18.50;41.80;;;;;;5008692;28;20224;-59
2022/03/29 04:26:39;;;;;;;2.87;2.67;;;18.50;41.70;;;;;;5010166;28;20491;-61
2022/03/29 04:29:05;;;;;;;2.93;2.73;;;18.50;41.80;;;;;;5008959;28;20495;-60
2022/03/29 04:31:31;;;;;;;2.87;2.67;;;18.50;41.70;;;;;;5009476;28;20533;-59
2022/03/29 04:33:58;;;;;;;3.40;3.10;;;18.50;41.70;;;;;;5009341;28;20282;-59
2022/03/29 04:36:24;;;;;;;3.73;3.53;;;18.50;41.70;;;;;;5006314;28;20424;-61
2022/03/29 04:38:50;;;;;;;3.47;3.27;;;18.50;41.80;;;;;;5009327;28;20889;-58
2022/03/29 04:41:16;;;;;;;3.43;3.23;;;18.50;41.70;;;;;;5007152;28;20435;-58
2022/03/29 04:43:42;;;;;;;3.37;3.17;;;18.50;41.80;;;;;;5008975;28;20671;-61
2022/03/29 04:46:08;;;;;;;3.13;2.80;;;18.50;41.70;;;;;;5007416;28;20226;-61
2022/03/29 04:48:34;;;;;;;3.33;3.13;;;18.50;41.70;;;;;;5008202;28;20251;-63
2022/03/29 04:51:00;;;;;;;3.40;3.20;;;18.50;41.70;;;;;;5007716;28;20427;-60
2022/03/29 04:53:25;;;;;;;3.60;3.30;;;18.50;41.70;;;;;;5009503;28;20838;-58
2022/03/29 04:55:51;;;;;;;3.47;3.27;;;18.50;41.70;;;;;;5009036;28;20250;-58
2022/03/29 04:58:17;;;;;;;2.90;2.70;;;18.50;41.70;;;;;;5009669;28;20235;-58
2022/03/29 05:00:43;;;;;;;3.57;3.37;;;18.50;41.70;;;;;;5008366;28;20223;-58
2022/03/29 05:03:08;;;;;;;3.27;3.07;;;18.50;41.70;;;;;;5007750;28;20481;-58
2022/03/29 05:05:35;;;;;;;3.20;3.00;;;18.50;41.60;;;;;;5007069;28;20227;-58
2022/03/29 05:08:00;;;;;;;3.43;3.23;;;18.50;41.70;;;;;;5009382;28;20668;-57
2022/03/29 05:10:26;;;;;;;2.90;2.70;;;18.50;41.70;;;;;;5008522;28;20449;-57
2022/03/29 05:12:52;;;;;;;3.00;2.80;;;18.50;41.60;;;;;;5009175;28;20258;-57
2022/03/29 05:15:20;;;;;;;3.13;2.83;;;18.60;41.70;;;;;;5008708;28;20259;-58
2022/03/29 05:17:47;;;;;;;3.73;3.50;;;18.60;41.70;;;;;;5008328;28;20212;-59
2022/03/29 05:20:14;;;;;;;4.07;3.80;;;18.60;41.70;;;;;;5006769;28;20445;-58
2022/03/29 05:22:51;;;;;;;3.60;3.40;;;18.60;41.70;;;;;;5007521;28;20421;-57
2022/03/29 05:25:19;;;;;;;3.67;3.47;;;18.60;41.70;;;;;;5007634;28;20432;-58
2022/03/29 05:27:45;;;;;;;3.57;3.37;;;18.60;41.70;;;;;;5005467;28;20427;-58
2022/03/29 05:30:12;;;;;;;4.07;3.77;;;18.60;41.70;;;;;;5008464;28;20475;-58
2022/03/29 05:32:38;;;;;;;3.47;3.27;;;18.60;41.60;;;;;;5008920;28;20719;-61
2022/03/29 05:35:07;;;;;;;3.20;3.00;;;18.60;41.60;;;;;;5006330;28;20443;-61
2022/03/29 05:37:33;;;;;;;2.80;2.60;;;18.60;41.60;;;;;;5006747;28;20427;-58
2022/03/29 05:40:00;;;;;;;3.17;2.97;;;18.60;41.60;;;;;;5004199;28;20493;-57
2022/03/29 05:42:25;;;;;;;6.67;4.50;;;18.60;41.60;;;;;;5004532;28;20420;-60
2022/03/29 05:44:51;;;;;;;7.93;4.50;;;18.60;41.40;;;;;;5008470;28;20444;-59
2022/03/29 05:50:01;;;;;;;4.17;3.53;;;18.60;41.50;;;;;;5006718;28;20222;-60
2022/03/29 05:52:28;;;;;;;7.37;4.07;;;18.60;41.40;;;;;;5008916;28;20826;-59
2022/03/29 05:54:54;;;;;;;9.50;3.80;;;18.60;41.30;;;;;;5002198;28;20240;-58
2022/03/29 05:57:20;;;;;;;3.83;3.60;;;18.70;41.50;;;;;;5001479;28;20425;-59
2022/03/29 05:59:45;;;;;;;3.60;3.30;;;18.70;41.50;;;;;;5008318;28;20259;-58
2022/03/29 06:02:11;;;;;;;4.10;3.73;;;18.70;41.50;;;;;;5005878;28;20220;-58
2022/03/29 06:04:38;;;;;;;4.77;4.10;;;18.70;41.50;;;;;;5006279;28;20251;-58
2022/03/29 06:07:04;;;;;;;4.40;3.80;;;18.60;41.40;;;;;;5003369;28;20446;-58
2022/03/29 06:09:30;;;;;;;8.30;3.63;;;18.70;41.50;;;;;;5007442;28;20502;-57
2022/03/29 06:11:56;;;;;;;5.67;3.50;;;18.70;41.50;;;;;;5011090;28;20441;-57
2022/03/29 06:14:22;;;;;;;5.03;3.83;;;18.70;41.50;;;;;;5008858;28;20428;-60
2022/03/29 06:16:47;;;;;;;3.70;3.50;;;18.60;41.30;;;;;;5011990;28;20282;-61
2022/03/29 06:19:13;;;;;;;5.20;3.10;;;18.70;41.50;;;;;;5012360;28;20234;-58
2022/03/29 06:21:40;;;;;;;3.63;3.33;;;18.70;41.50;;;;;;5012438;28;20222;-58
2022/03/29 06:24:07;;;;;;;3.83;3.33;;;18.70;41.50;;;;;;5009163;28;20432;-59
2022/03/29 06:26:37;;;;;;;4.47;4.07;;;18.70;41.50;;;;;;5009314;28;20425;-57
2022/03/29 06:29:03;;;;;;;3.37;3.13;;;18.70;41.50;;;;;;5010543;28;21182;-59
2022/03/29 06:31:29;;;;;;;7.60;3.67;;;18.70;41.50;;;;;;5011188;28;20419;-58
2022/03/29 06:33:55;;;;;;;4.47;4.07;;;18.70;41.50;;;;;;5012208;28;20901;-58
2022/03/29 06:36:20;;;;;;;3.37;3.17;;;18.70;41.50;;;;;;5011546;28;20676;-58
2022/03/29 06:38:46;;;;;;;4.57;3.23;;;18.70;41.50;;;;;;5011528;28;20219;-57
2022/03/29 06:41:13;;;;;;;3.10;2.90;;;18.70;41.50;;;;;;5011748;28;20266;-57
2022/03/29 06:43:40;;;;;;;3.83;3.53;;;18.70;41.50;;;;;;5009355;28;20704;-57
2022/03/29 06:46:08;;;;;;;3.47;3.27;;;18.70;41.50;;;;;;5009803;28;20436;-57
2022/03/29 06:48:38;;;;;;;3.27;2.97;;;18.70;41.40;;;;;;5011275;28;20441;-57
2022/03/29 06:51:04;;;;;;;3.27;3.07;;;18.70;41.50;;;;;;5011152;28;20444;-58
2022/03/29 06:53:30;;;;;;;3.30;3.10;;;18.70;41.50;;;;;;5010246;28;20473;-57
2022/03/29 06:55:56;;;;;;;3.30;3.03;;;18.70;41.50;;;;;;5011287;28;20522;-57
2022/03/29 06:58:21;;;;;;;4.50;4.10;;;18.70;42.20;;;;;;5008266;28;20419;-58
2022/03/29 07:00:47;;;;;;;3.60;3.30;;;18.70;41.40;;;;;;5011413;28;20274;-58
2022/03/29 07:03:13;;;;;;;3.63;3.37;;;18.70;42.20;;;;;;5009164;28;20224;-58
2022/03/29 07:05:42;;;;;;;5.10;3.87;;;18.70;41.40;;;;;;4990556;28;20220;-58
2022/03/29 07:08:12;;;;;;;3.43;3.23;;;18.70;41.40;;;;;;5009389;28;20236;-57
2022/03/29 07:13:23;;;;;;;3.73;3.53;;;18.70;41.40;;;;;;5008660;28;20553;-57
2022/03/29 07:15:49;;;;;;;3.93;3.53;;;18.70;41.50;;;;;;5009723;28;20492;-58
2022/03/29 07:18:15;;;;;;;3.70;3.40;;;18.70;41.40;;;;;;5009830;28;20927;-57
2022/03/29 07:20:41;;;;;;;3.60;3.40;;;18.70;41.30;;;;;;5008554;28;20424;-58
2022/03/29 07:23:06;;;;;;;3.73;3.43;;;18.70;41.40;;;;;;5009793;28;20665;-57
2022/03/29 07:25:32;;;;;;;3.80;3.60;;;18.70;41.40;;;;;;5009122;28;20263;-57
2022/03/29 07:27:58;;;;;;;3.83;3.53;;;18.70;41.40;;;;;;5010957;28;20211;-57
2022/03/29 07:30:24;;;;;;;3.80;3.37;;;18.70;41.40;;;;;;5010860;28;20219;-58
2022/03/29 07:32:54;;;;;;;3.70;3.40;;;18.70;41.30;;;;;;5008682;28;20439;-58
2022/03/29 07:35:22;;;;;;;3.40;3.20;;;18.70;41.30;;;;;;5008029;28;20591;-58
2022/03/29 07:37:48;;;;;;;3.30;3.00;;;18.80;41.40;;;;;;5009544;28;20464;-57
2022/03/29 07:40:16;;;;;;;3.97;3.67;;;18.70;41.30;;;;;;5009262;28;20466;-58
2022/03/29 07:42:43;;;;;;;3.50;3.30;;;18.70;41.30;;;;;;5010278;28;20448;-58
2022/03/29 07:45:12;;;;;;;3.40;3.20;;;18.70;41.40;;;;;;5008994;28;20424;-57
2022/03/29 07:47:41;;;;;;;3.67;3.37;;;18.70;41.30;;;;;;5007818;28;20471;-57
2022/03/29 07:50:08;;;;;;;3.40;3.20;;;18.70;41.30;;;;;;5009056;28;20451;-59
2022/03/29 07:52:40;;;;;;;3.40;3.20;;;18.70;41.30;;;;;;5010119;28;20471;-58
2022/03/29 07:55:09;;;;;;;3.97;3.67;;;18.70;41.40;;;;;;4992115;28;20465;-57
2022/03/29 07:57:36;;;;;;;3.90;3.63;;;18.70;41.30;;;;;;5007954;28;20433;-57
2022/03/29 08:00:31;;;;;;;4.30;4.00;;;18.70;41.40;;;;;;5010477;28;20778;-57
2022/03/29 08:02:49;;;;;;;3.13;2.80;;;18.70;41.30;;;;;;5007905;28;20420;-58
2022/03/29 08:05:14;;;;;;;4.67;4.27;;;18.70;41.40;;;;;;5007293;28;20486;-58
2022/03/29 08:07:41;;;;;;;3.93;3.63;;;18.70;41.40;;;;;;5009641;28;20239;-58
2022/03/29 08:10:07;;;;;;;3.63;3.30;;;18.70;41.30;;;;;;5008506;28;20443;-57
2022/03/29 08:12:34;;;;;;;3.97;3.77;;;18.70;41.40;;;;;;5009016;28;20439;-56
2022/03/29 08:14:59;;;;;;;3.80;3.60;;;18.70;41.40;;;;;;4988017;28;20965;-57
2022/03/29 08:17:25;;;;;;;4.47;4.07;;;18.70;41.30;;;;;;5008440;28;20484;-57
2022/03/29 08:19:50;;;;;;;4.00;3.70;;;18.70;41.40;;;;;;5007269;28;20231;-58
2022/03/29 08:22:16;;;;;;;4.20;3.80;;;18.70;41.40;;;;;;5008312;28;20224;-57
2022/03/29 08:24:41;;;;;;;3.30;3.00;;;18.70;41.30;;;;;;5008933;28;20224;-58
2022/03/29 08:27:09;;;;;;;3.37;3.17;;;18.80;41.40;;;;;;5009687;28;20231;-57
2022/03/29 08:29:34;;;;;;;3.43;3.23;;;18.70;41.40;;;;;;5005782;28;20560;-59
2022/03/29 08:32:00;;;;;;;3.70;3.40;;;18.70;41.40;;;;;;5008978;28;20464;-58
2022/03/29 08:34:25;;;;;;;4.37;3.97;;;18.70;41.40;;;;;;5005722;28;20216;-58
2022/03/29 08:36:52;;;;;;;3.73;3.43;;;18.70;41.40;;;;;;5009559;28;20224;-58
2022/03/29 08:39:18;;;;;;;3.90;3.57;;;18.70;41.50;;;;;;5007234;28;20220;-57
2022/03/29 08:41:52;;;;;;;3.73;3.43;;;18.70;41.40;;;;;;5009551;28;20420;-57
2022/03/29 08:44:19;;;;;;;4.33;3.80;;;18.70;41.40;;;;;;5008715;28;20276;-58
2022/03/29 08:46:46;;;;;;;4.40;4.00;;;18.70;41.40;;;;;;5009281;28;21565;-59
2022/03/29 08:49:14;;;;;;;6.37;4.40;;;18.70;41.40;;;;;;5008835;28;20452;-57
2022/03/29 08:51:40;;;;;;;4.70;4.20;;;18.70;41.40;;;;;;5007997;28;20425;-57
2022/03/29 08:54:06;;;;;;;6.27;3.97;;;18.70;41.40;;;;;;5009073;28;20540;-57
2022/03/29 08:56:33;;;;;;;6.37;3.80;;;18.70;41.40;;;;;;5008842;28;20428;-57
2022/03/29 08:58:58;;;;;;;4.37;3.93;;;18.70;41.40;;;;;;5005327;28;20449;-56
2022/03/29 09:01:24;;;;;;;4.90;4.60;;;18.70;41.40;;;;;;5008296;28;20454;-58
2022/03/29 09:04:20;;;;;;;7.40;4.17;;;18.70;41.40;;;;;;5008968;28;20334;-58
2022/03/29 09:06:58;;;;;;;4.20;3.87;;;18.80;41.50;;;;;;5006034;28;20220;-57
2022/03/29 09:09:27;;;;;;;3.97;3.77;;;18.70;41.50;;;;;;5007684;28;20440;-58
2022/03/29 09:11:56;;;;;;;4.20;3.90;;;18.70;41.50;;;;;;5008234;28;20435;-58
2022/03/29 09:14:22;;;;;;;4.13;3.83;;;18.70;41.50;;;;;;5007734;28;20447;-57
2022/03/29 09:16:49;;;;;;;5.97;3.97;;;18.70;41.50;;;;;;5008606;28;20584;-58
2022/03/29 09:19:14;;;;;;;4.40;4.10;;;18.70;41.50;;;;;;5009288;28;20785;-57
2022/03/29 09:21:42;;;;;;;4.00;3.80;;;18.70;41.60;;;;;;5007215;28;20424;-57
2022/03/29 09:24:12;;;;;;;4.70;4.30;;;18.70;41.60;;;;;;5006481;28;20256;-58
2022/03/29 09:26:39;;;;;;;4.93;4.63;;;18.70;41.50;;;;;;5008638;28;20432;-57
2022/03/29 09:29:16;;;;;;;4.97;4.40;;;18.70;41.50;;;;;;5007522;28;20453;-57
2022/03/29 09:31:42;;;;;;;6.00;4.03;;;18.70;41.60;;;;;;5007265;28;20508;-57
2022/03/29 09:34:18;;;;;;;4.87;4.50;;;18.70;41.60;;;;;;5006913;28;20432;-58
2022/03/29 09:36:52;;;;;;;4.60;4.17;;;18.70;41.60;;;;;;5006666;28;20432;-57
2022/03/29 09:39:38;;;;;;;4.17;3.87;;;18.70;41.60;;;;;;5008076;28;20417;-57
2022/03/29 09:42:14;;;;;;;5.70;4.07;;;18.70;41.60;;;;;;5008391;28;20427;-57
2022/03/29 09:44:45;;;;;;;5.27;4.57;;;18.70;42.30;;;;;;5007216;28;20496;-58
2022/03/29 09:47:14;;;;;;;4.03;3.83;;;18.70;41.60;;;;;;5005115;28;20496;-57
2022/03/29 09:49:54;;;;;;;4.17;3.90;;;18.70;41.60;;;;;;5006447;28;20525;-57
2022/03/29 09:52:23;;;;;;;4.70;4.33;;;18.70;41.60;;;;;;5006638;28;20427;-58
2022/03/29 09:55:17;;;;;;;4.00;3.80;;;18.70;41.60;;;;;;5004410;28;20983;-57
2022/03/29 09:57:47;;;;;;;5.23;4.30;;;18.70;41.60;;;;;;5006467;28;20412;-59
2022/03/29 10:00:19;;;;;;;4.60;4.30;;;18.70;41.60;;;;;;5006350;28;20440;-59
2022/03/29 10:02:46;;;;;;;5.23;4.73;;;18.70;41.60;;;;;;4988917;28;20974;-58
2022/03/29 10:05:12;;;;;;;6.43;4.93;;;18.70;41.70;;;;;;4991361;28;20427;-58
2022/03/29 10:10:47;;;;;;;4.20;3.90;;;18.60;41.60;;;;;;4987061;28;20464;-58
2022/03/29 10:13:15;;;;;;;5.10;4.70;;;18.70;41.60;;;;;;4990880;28;20456;-58
2022/03/29 10:15:42;;;;;;;5.23;4.83;;;18.70;41.60;;;;;;4989459;28;20437;-57
2022/03/29 10:18:08;;;;;;;4.90;4.50;;;18.70;41.70;;;;;;4991555;28;20462;-57
2022/03/29 10:20:35;;;;;;;4.40;4.10;;;18.70;41.70;;;;;;4990699;28;20512;-58
2022/03/29 10:23:00;;;;;;;4.83;4.43;;;18.70;41.70;;;;;;4972131;28;20943;-58
2022/03/29 10:25:27;;;;;;;5.37;4.87;;;18.70;41.60;;;;;;4990820;28;20547;-57
2022/03/29 10:27:56;;;;;;;5.23;4.80;;;18.70;41.70;;;;;;4990471;28;20295;-59
2022/03/29 10:30:32;;;;;;;5.40;5.00;;;18.70;41.70;;;;;;4990076;28;20781;-58
2022/03/29 10:33:16;;;;;;;5.90;5.43;;;18.70;41.70;;;;;;4989600;28;20432;-57
2022/03/29 10:36:00;;;;;;;5.30;4.90;;;18.70;41.70;;;;;;4988716;28;20444;-57
2022/03/29 10:38:46;;;;;;;5.20;4.70;;;18.70;41.70;;;;;;4980438;28;20428;-58
2022/03/29 10:41:30;;;;;;;5.70;5.30;;;18.60;41.60;;;;;;5007095;28;20771;-57
2022/03/29 10:43:55;;;;;;;5.83;5.30;;;18.60;41.60;;;;;;5006294;28;20953;-58
2022/03/29 10:46:24;;;;;;;6.30;5.80;;;18.60;41.60;;;;;;5005516;28;20509;-57
2022/03/29 10:49:14;;;;;;;5.87;5.43;;;18.60;41.60;;;;;;5006325;28;20219;-58
2022/03/29 10:51:40;;;;;;;5.83;5.43;;;18.60;41.70;;;;;;5007290;28;20940;-57
2022/03/29 10:54:43;;;;;;;7.57;6.27;;;18.60;41.70;;;;;;5005525;28;20459;-58
2022/03/29 10:57:20;;;;;;;5.73;5.20;;;18.60;42.50;;;;;;5004924;28;20286;-57
2022/03/29 11:00:10;;;;;;;9.07;5.90;;;18.60;41.70;;;;;;5009636;28;20495;-57
2022/03/29 11:02:36;;;;;;;5.33;4.93;;;18.60;41.70;;;;;;5009836;28;20429;-57
2022/03/29 11:05:12;;;;;;;6.87;6.27;;;18.60;41.70;;;;;;5011389;28;20478;-57
2022/03/29 11:07:52;;;;;;;5.97;5.50;;;18.60;41.70;;;;;;5010242;28;20447;-57
2022/03/29 11:10:23;;;;;;;6.80;6.30;;;18.60;41.70;;;;;;5009990;28;20440;-57
2022/03/29 11:12:51;;;;;;;6.90;6.23;;;18.60;41.70;;;;;;5008428;28;20425;-58
2022/03/29 11:15:27;;;;;;;6.43;5.93;;;18.60;41.80;;;;;;5009477;28;20475;-57
2022/03/29 11:17:53;;;;;;;6.57;6.07;;;18.60;41.70;;;;;;5010171;28;20808;-57
2022/03/29 11:20:32;;;;;;;6.47;5.97;;;18.60;41.70;;;;;;5010208;28;20432;-57
2022/03/29 11:23:06;;;;;;;7.40;5.90;;;18.60;41.70;;;;;;5009754;28;20427;-58
2022/03/29 11:25:45;;;;;;;6.97;6.47;;;18.60;41.70;;;;;;5007013;28;20476;-58
2022/03/29 11:28:16;;;;;;;6.87;6.27;;;18.60;41.80;;;;;;5008974;28;20445;-58
2022/03/29 11:30:42;;;;;;;7.80;7.10;;;18.60;41.80;;;;;;5009620;28;20575;-58
2022/03/29 11:33:09;;;;;;;7.33;6.57;;;18.60;41.80;;;;;;5008239;28;20473;-58
2022/03/29 11:35:36;;;;;;;6.83;6.13;;;18.60;41.70;;;;;;5009319;28;20475;-57
2022/03/29 11:38:15;;;;;;;7.13;6.43;;;18.60;41.70;;;;;;5009822;28;20489;-57
2022/03/29 11:40:41;;;;;;;7.97;6.37;;;18.60;41.80;;;;;;5010066;28;20428;-57
2022/03/29 11:43:11;;;;;;;7.37;6.40;;;18.60;41.70;;;;;;5008956;28;20469;-57
2022/03/29 11:45:50;;;;;;;6.40;5.90;;;18.60;41.70;;;;;;5009441;28;20428;-57
2022/03/29 11:48:20;;;;;;;9.73;7.40;;;18.60;41.70;;;;;;4991611;28;20428;-57
2022/03/29 11:50:49;;;;;;;6.90;6.20;;;18.60;41.80;;;;;;5011690;28;20425;-58
2022/03/29 11:53:21;;;;;;;6.97;6.23;;;18.60;41.80;;;;;;4992289;28;20956;-57
2022/03/29 11:56:06;;;;;;;7.10;6.50;;;18.60;41.80;;;;;;5002747;28;20954;-57
2022/03/29 11:58:33;;;;;;;8.07;7.03;;;18.60;41.80;;;;;;5008206;28;20951;-58
2022/03/29 12:00:58;;;;;;;7.37;6.67;;;18.60;41.80;;;;;;5006598;28;20436;-58
2022/03/29 12:03:28;;;;;;;8.00;7.20;;;18.60;41.80;;;;;;5008211;28;20430;-57
2022/03/29 12:06:21;;;;;;;7.57;6.57;;;18.60;41.80;;;;;;5009554;28;20220;-57
2022/03/29 12:08:49;;;;;;;8.50;7.60;;;18.60;41.80;;;;;;5008314;28;20444;-58
2022/03/29 12:11:16;;;;;;;7.93;7.07;;;18.60;41.80;;;;;;5008150;28;20471;-57
2022/03/29 12:13:44;;;;;;;6.53;6.03;;;18.60;41.90;;;;;;5008283;28;20431;-57
2022/03/29 12:16:24;;;;;;;7.53;6.63;;;18.60;41.90;;;;;;5007211;28;20428;-58
2022/03/29 12:18:51;;;;;;;9.00;6.90;;;18.60;41.90;;;;;;5008522;28;20457;-59
2022/03/29 12:21:19;;;;;;;7.53;6.73;;;18.60;41.90;;;;;;5010821;28;20481;-58
2022/03/29 12:23:47;;;;;;;7.87;7.10;;;18.60;41.90;;;;;;5009954;28;20438;-58
2022/03/29 12:26:14;;;;;;;7.50;6.73;;;18.60;41.90;;;;;;5009397;28;20404;-58
2022/03/29 12:28:41;;;;;;;8.03;7.07;;;18.60;41.90;;;;;;5008214;28;20421;-58
2022/03/29 12:31:15;;;;;;;10.00;7.70;;;18.60;41.90;;;;;;5008248;28;20462;-58
2022/03/29 12:33:41;;;;;;;7.73;7.03;;;18.60;41.90;;;;;;4992575;28;20636;-59
2022/03/29 12:36:10;;;;;;;10.63;8.40;;;18.60;41.90;;;;;;5007669;28;20511;-58
2022/03/29 12:38:53;;;;;;;8.37;7.67;;;18.60;41.90;;;;;;5010117;28;20431;-57
2022/03/29 12:41:37;;;;;;;8.70;7.80;;;18.60;41.90;;;;;;5009411;28;20424;-57
2022/03/29 12:44:05;;;;;;;9.63;7.80;;;18.60;41.90;;;;;;5008567;28;20463;-57
2022/03/29 12:46:32;;;;;;;9.20;8.30;;;18.60;42.00;;;;;;5009597;28;20453;-57
2022/03/29 12:48:58;;;;;;;8.93;8.03;;;18.60;42.00;;;;;;5008471;28;20985;-57
2022/03/29 12:51:37;;;;;;;11.70;8.30;;;18.60;41.90;;;;;;4983101;28;20420;-56
2022/03/29 12:54:07;;;;;;;8.77;7.40;;;18.60;42.00;;;;;;5008892;28;20242;-57
2022/03/29 12:56:43;;;;;;;9.93;8.37;;;18.60;41.90;;;;;;5007578;28;20928;-57
2022/03/29 13:00:00;;;;;;;10.57;8.10;;;18.60;42.00;;;;;;4997680;28;20770;-56
2022/03/29 13:02:27;;;;;;;9.17;8.20;;;18.60;42.00;;;;;;4908725;29;20536;-57
2022/03/29 13:05:03;;;;;;;11.27;8.40;;;18.50;42.00;;;;;;4911141;29;20439;-57